createdAt,value
2022-12-26T00:00:01.636Z,1005.7
2022-12-26T00:01:10.946Z,1005.7
2022-12-26T00:02:01.602Z,1005.7
2022-12-26T00:03:01.251Z,1005.7
2022-12-26T00:04:02.091Z,1005.7
2022-12-26T00:05:01.310Z,1005.7
2022-12-26T00:06:01.193Z,1005.7
2022-12-26T00:07:02.172Z,1005.8
2022-12-26T00:08:01.136Z,1005.8
2022-12-26T00:09:03.917Z,1005.8
2022-12-26T00:10:01.180Z,1005.8
2022-12-26T00:11:01.153Z,1005.9
2022-12-26T00:12:01.149Z,1005.9
2022-12-26T00:13:40.231Z,1005.9
2022-12-26T00:14:06.417Z,1005.9
2022-12-26T00:15:01.346Z,1005.9
2022-12-26T00:16:05.136Z,1005.9
2022-12-26T00:17:01.170Z,1005.9
2022-12-26T00:18:01.527Z,1005.9
2022-12-26T00:19:02.405Z,1005.9
2022-12-26T00:20:01.644Z,1005.9
2022-12-26T00:21:01.821Z,1005.9
2022-12-26T00:22:01.502Z,1005.9
2022-12-26T00:23:01.654Z,1005.9
2022-12-26T00:24:01.838Z,1005.9
2022-12-26T00:25:01.200Z,1005.9
2022-12-26T00:26:03.139Z,1005.8
2022-12-26T00:27:01.163Z,1005.9
2022-12-26T00:28:01.564Z,1006.0
2022-12-26T00:29:02.048Z,1005.9
2022-12-26T00:30:01.660Z,1006.0
2022-12-26T00:31:03.858Z,1006.0
2022-12-26T00:32:01.217Z,1006.0
2022-12-26T00:33:01.151Z,1006.0
2022-12-26T00:34:02.354Z,1006.0
2022-12-26T00:35:01.186Z,1006.1
2022-12-26T00:36:02.644Z,1006.1
2022-12-26T00:37:01.514Z,1006.0
2022-12-26T00:38:01.132Z,1006.0
2022-12-26T00:39:02.733Z,1006.0
2022-12-26T00:40:02.205Z,1006.0
2022-12-26T00:41:02.203Z,1006.1
2022-12-26T00:42:01.303Z,1006.0
2022-12-26T00:43:01.479Z,1006.0
2022-12-26T00:44:01.512Z,1006.0
2022-12-26T00:45:01.499Z,1006.0
2022-12-26T00:46:02.210Z,1006.0
2022-12-26T00:47:01.282Z,1006.0
2022-12-26T00:48:01.967Z,1006.0
2022-12-26T00:49:01.167Z,1006.0
2022-12-26T00:50:12.952Z,1006.0
2022-12-26T00:51:02.315Z,1006.0
2022-12-26T00:52:01.137Z,1006.0
2022-12-26T00:53:01.506Z,1006.0
2022-12-26T00:54:01.690Z,1006.1
2022-12-26T00:55:01.520Z,1006.1
2022-12-26T00:56:01.593Z,1006.1
2022-12-26T00:57:01.246Z,1006.1
2022-12-26T00:58:01.603Z,1006.1
2022-12-26T00:59:01.796Z,1006.2
2022-12-26T01:00:01.661Z,1006.2
2022-12-26T01:01:08.089Z,1006.2
2022-12-26T01:02:01.698Z,1006.1
2022-12-26T01:03:02.045Z,1006.2
2022-12-26T01:04:01.198Z,1006.2
2022-12-26T01:05:01.655Z,1006.1
2022-12-26T01:06:02.968Z,1006.2
2022-12-26T01:07:01.475Z,1006.2
2022-12-26T01:08:22.121Z,1006.2
2022-12-26T01:09:01.159Z,1006.2
2022-12-26T01:10:02.482Z,1006.2
2022-12-26T01:11:04.927Z,1006.2
2022-12-26T01:12:01.152Z,1006.2
2022-12-26T01:13:02.063Z,1006.1
2022-12-26T01:14:01.635Z,1006.1
2022-12-26T01:15:01.732Z,1006.0
2022-12-26T01:16:02.541Z,1006.1
2022-12-26T01:17:01.608Z,1006.1
2022-12-26T01:18:01.716Z,1006.1
2022-12-26T01:19:01.782Z,1006.1
2022-12-26T01:20:01.298Z,1006.1
2022-12-26T01:21:05.702Z,1006.1
2022-12-26T01:22:01.199Z,1006.2
2022-12-26T01:23:01.158Z,1006.1
2022-12-26T01:24:01.523Z,1006.1
2022-12-26T01:25:01.169Z,1006.2
2022-12-26T01:26:16.980Z,1006.2
2022-12-26T01:27:01.542Z,1006.2
2022-12-26T01:28:01.527Z,1006.2
2022-12-26T01:29:01.508Z,1006.2
2022-12-26T01:30:02.530Z,1006.2
2022-12-26T01:31:03.378Z,1006.1
2022-12-26T01:32:01.493Z,1006.1
2022-12-26T01:33:01.497Z,1006.2
2022-12-26T01:34:01.178Z,1006.2
2022-12-26T01:35:01.993Z,1006.2
2022-12-26T01:36:01.501Z,1006.3
2022-12-26T01:37:01.565Z,1006.3
2022-12-26T01:38:01.606Z,1006.2
2022-12-26T01:39:01.507Z,1006.2
2022-12-26T01:40:01.152Z,1006.2
2022-12-26T01:41:01.537Z,1006.2
2022-12-26T01:42:01.483Z,1006.2
2022-12-26T01:43:01.743Z,1006.2
2022-12-26T01:44:03.484Z,1006.2
2022-12-26T01:45:04.773Z,1006.2
2022-12-26T01:46:01.254Z,1006.1
2022-12-26T01:47:01.205Z,1006.1
2022-12-26T01:48:05.451Z,1006.1
2022-12-26T01:49:06.799Z,1006.1
2022-12-26T01:50:02.430Z,1006.1
2022-12-26T01:51:04.514Z,1006.2
2022-12-26T01:52:05.629Z,1006.2
2022-12-26T01:53:06.787Z,1006.2
2022-12-26T01:54:39.423Z,1006.3
2022-12-26T01:55:05.644Z,1006.3
2022-12-26T01:56:07.841Z,1006.2
2022-12-26T01:57:08.334Z,1006.2
2022-12-26T01:58:08.000Z,1006.2
2022-12-26T01:59:05.655Z,1006.2
2022-12-26T02:00:03.075Z,1006.2
2022-12-26T02:01:04.081Z,1006.3
2022-12-26T02:02:02.560Z,1006.2
2022-12-26T02:03:01.255Z,1006.2
2022-12-26T02:04:04.313Z,1006.2
2022-12-26T02:05:01.407Z,1006.2
2022-12-26T02:06:01.521Z,1006.2
2022-12-26T02:07:03.508Z,1006.2
2022-12-26T02:08:05.439Z,1006.3
2022-12-26T02:09:01.659Z,1006.3
2022-12-26T02:10:03.255Z,1006.4
2022-12-26T02:11:10.153Z,1006.4
2022-12-26T02:12:34.978Z,1006.4
2022-12-26T02:13:01.775Z,1006.4
2022-12-26T02:14:04.876Z,1006.4
2022-12-26T02:15:04.492Z,1006.4
2022-12-26T02:16:02.734Z,1006.4
2022-12-26T02:17:02.099Z,1006.4
2022-12-26T02:18:01.332Z,1006.5
2022-12-26T02:19:01.830Z,1006.6
2022-12-26T02:20:15.019Z,1006.6
2022-12-26T02:21:20.533Z,1006.6
2022-12-26T02:22:20.539Z,1006.7
2022-12-26T02:23:20.558Z,1006.6
2022-12-26T02:24:20.543Z,1006.6
2022-12-26T02:25:14.063Z,1006.6
2022-12-26T02:26:20.541Z,1006.6
2022-12-26T02:27:13.448Z,1006.6
2022-12-26T02:28:20.534Z,1006.6
2022-12-26T02:29:20.545Z,1006.7
2022-12-26T02:30:10.509Z,1006.6
2022-12-26T02:31:10.268Z,1006.6
2022-12-26T02:32:11.364Z,1006.6
2022-12-26T02:33:20.546Z,1006.6
2022-12-26T02:34:11.692Z,1006.7
2022-12-26T02:35:14.386Z,1006.6
2022-12-26T02:36:20.540Z,1006.7
2022-12-26T02:37:12.488Z,1006.7
2022-12-26T02:38:17.433Z,1006.7
2022-12-26T02:39:43.538Z,1006.7
2022-12-26T02:40:15.399Z,1006.7
2022-12-26T02:41:16.348Z,1006.7
2022-12-26T02:42:15.821Z,1006.8
2022-12-26T02:43:10.685Z,1006.8
2022-12-26T02:44:15.205Z,1006.8
2022-12-26T02:45:08.572Z,1006.8
2022-12-26T02:46:08.722Z,1006.9
2022-12-26T02:47:10.678Z,1006.9
2022-12-26T02:48:08.012Z,1006.9
2022-12-26T02:49:10.587Z,1006.9
2022-12-26T02:50:08.829Z,1006.9
2022-12-26T02:51:12.784Z,1006.9
2022-12-26T02:52:11.980Z,1006.8
2022-12-26T02:53:11.560Z,1006.9
2022-12-26T02:54:13.532Z,1006.8
2022-12-26T02:55:11.259Z,1006.8
2022-12-26T02:56:13.121Z,1006.8
2022-12-26T02:57:04.780Z,1006.8
2022-12-26T02:58:06.302Z,1006.8
2022-12-26T02:59:08.472Z,1006.7
2022-12-26T03:00:05.878Z,1006.8
2022-12-26T03:01:06.336Z,1006.8
2022-12-26T03:02:05.437Z,1006.8
2022-12-26T03:03:04.624Z,1006.8
2022-12-26T03:04:08.417Z,1006.8
2022-12-26T03:05:02.930Z,1006.8
2022-12-26T03:06:05.687Z,1006.7
2022-12-26T03:07:07.477Z,1006.8
2022-12-26T03:08:05.321Z,1006.7
2022-12-26T03:09:05.152Z,1006.8
2022-12-26T03:10:05.429Z,1006.8
2022-12-26T03:11:02.547Z,1006.8
2022-12-26T03:12:07.079Z,1006.8
2022-12-26T03:13:08.227Z,1006.8
2022-12-26T03:14:10.299Z,1006.8
2022-12-26T03:15:03.927Z,1006.8
2022-12-26T03:16:05.309Z,1006.9
2022-12-26T03:17:05.913Z,1006.9
2022-12-26T03:18:05.871Z,1006.8
2022-12-26T03:19:07.524Z,1006.9
2022-12-26T03:20:05.343Z,1006.9
2022-12-26T03:21:03.075Z,1006.9
2022-12-26T03:22:03.763Z,1006.9
2022-12-26T03:23:06.002Z,1006.9
2022-12-26T03:24:01.577Z,1006.9
2022-12-26T03:25:05.933Z,1006.9
2022-12-26T03:26:06.245Z,1006.9
2022-12-26T03:27:01.308Z,1006.9
2022-12-26T03:28:01.610Z,1007.0
2022-12-26T03:29:02.283Z,1006.9
2022-12-26T03:30:01.230Z,1006.9
2022-12-26T03:31:10.682Z,1006.9
2022-12-26T03:32:03.634Z,1006.9
2022-12-26T03:33:01.475Z,1006.9
2022-12-26T03:34:06.649Z,1006.9
2022-12-26T03:35:01.291Z,1006.9
2022-12-26T03:36:02.567Z,1006.8
2022-12-26T03:37:20.576Z,1006.8
2022-12-26T03:38:06.895Z,1006.9
2022-12-26T03:39:12.963Z,1006.8
2022-12-26T03:40:13.879Z,1006.8
2022-12-26T03:41:08.521Z,1006.8
2022-12-26T03:42:09.650Z,1006.8
2022-12-26T03:43:10.428Z,1006.8
2022-12-26T03:44:16.361Z,1006.9
2022-12-26T03:45:12.819Z,1006.9
2022-12-26T03:46:12.965Z,1006.9
2022-12-26T03:47:16.374Z,1006.8
2022-12-26T03:48:06.542Z,1006.8
2022-12-26T03:49:08.384Z,1006.8
2022-12-26T03:50:08.024Z,1006.8
2022-12-26T03:51:07.670Z,1006.9
2022-12-26T03:52:07.108Z,1006.9
2022-12-26T03:53:09.465Z,1006.9
2022-12-26T03:54:09.191Z,1006.9
2022-12-26T03:55:07.341Z,1006.9
2022-12-26T03:56:11.321Z,1006.9
2022-12-26T03:57:08.755Z,1007.0
2022-12-26T03:58:08.855Z,1007.0
2022-12-26T03:59:07.076Z,1007.0
2022-12-26T04:00:05.683Z,1007.0
2022-12-26T04:01:07.769Z,1007.0
2022-12-26T04:02:06.827Z,1007.0
2022-12-26T04:03:08.077Z,1007.0
2022-12-26T04:04:06.323Z,1007.0
2022-12-26T04:05:05.460Z,1007.1
2022-12-26T04:06:05.686Z,1007.1
2022-12-26T04:07:06.421Z,1007.1
2022-12-26T04:08:16.457Z,1007.1
2022-12-26T04:09:08.320Z,1007.1
2022-12-26T04:10:06.192Z,1007.1
2022-12-26T04:11:02.867Z,1007.2
2022-12-26T04:12:02.087Z,1007.2
2022-12-26T04:13:05.846Z,1007.2
2022-12-26T04:14:08.350Z,1007.1
2022-12-26T04:15:06.618Z,1007.1
2022-12-26T04:16:07.845Z,1007.2
2022-12-26T04:17:13.964Z,1007.3
2022-12-26T04:18:05.179Z,1007.3
2022-12-26T04:19:14.230Z,1007.2
2022-12-26T04:20:09.298Z,1007.2
2022-12-26T04:21:11.825Z,1007.2
2022-12-26T04:22:07.906Z,1007.2
2022-12-26T04:23:08.915Z,1007.2
2022-12-26T04:24:08.770Z,1007.2
2022-12-26T04:25:09.465Z,1007.2
2022-12-26T04:26:07.824Z,1007.3
2022-12-26T04:27:04.914Z,1007.3
2022-12-26T04:28:02.080Z,1007.3
2022-12-26T04:29:02.860Z,1007.3
2022-12-26T04:30:01.672Z,1007.3
2022-12-26T04:31:13.476Z,1007.3
2022-12-26T04:32:09.798Z,1007.2
2022-12-26T04:33:10.689Z,1007.2
2022-12-26T04:34:07.196Z,1007.2
2022-12-26T04:35:07.505Z,1007.2
2022-12-26T04:36:07.140Z,1007.2
2022-12-26T04:37:06.376Z,1007.2
2022-12-26T04:38:03.639Z,1007.2
2022-12-26T04:39:08.205Z,1007.2
2022-12-26T04:40:04.136Z,1007.1
2022-12-26T04:41:03.130Z,1007.1
2022-12-26T04:42:02.374Z,1007.1
2022-12-26T04:43:48.857Z,1007.1
2022-12-26T04:44:05.059Z,1007.1
2022-12-26T04:45:03.603Z,1007.0
2022-12-26T04:46:02.225Z,1007.0
2022-12-26T04:47:01.183Z,1006.9
2022-12-26T04:48:01.562Z,1006.9
2022-12-26T04:49:05.263Z,1006.9
2022-12-26T04:50:07.418Z,1006.9
2022-12-26T04:51:02.572Z,1006.9
2022-12-26T04:52:06.177Z,1006.9
2022-12-26T04:53:01.403Z,1006.9
2022-12-26T04:54:02.115Z,1006.9
2022-12-26T04:55:01.144Z,1006.9
2022-12-26T04:56:01.529Z,1006.9
2022-12-26T04:57:01.628Z,1006.9
2022-12-26T04:58:01.539Z,1006.9
2022-12-26T04:59:01.160Z,1007.0
2022-12-26T05:00:01.161Z,1007.0
2022-12-26T05:01:01.659Z,1006.9
2022-12-26T05:02:01.334Z,1006.9
2022-12-26T05:03:01.584Z,1007.0
2022-12-26T05:04:01.710Z,1006.9
2022-12-26T05:05:01.196Z,1007.0
2022-12-26T05:06:01.619Z,1006.9
2022-12-26T05:07:03.504Z,1007.0
2022-12-26T05:08:01.551Z,1006.9
2022-12-26T05:09:01.259Z,1006.9
2022-12-26T05:10:02.705Z,1006.9
2022-12-26T05:11:01.146Z,1006.9
2022-12-26T05:12:02.781Z,1006.9
2022-12-26T05:13:01.145Z,1006.9
2022-12-26T05:14:01.296Z,1006.9
2022-12-26T05:15:01.524Z,1007.0
2022-12-26T05:16:01.304Z,1007.0
2022-12-26T05:17:01.768Z,1007.0
2022-12-26T05:18:01.133Z,1007.0
2022-12-26T05:19:01.215Z,1007.0
2022-12-26T05:20:01.738Z,1007.0
2022-12-26T05:21:01.238Z,1007.1
2022-12-26T05:22:03.641Z,1007.0
2022-12-26T05:23:01.927Z,1007.1
2022-12-26T05:24:01.396Z,1007.1
2022-12-26T05:25:01.376Z,1007.0
2022-12-26T05:26:02.374Z,1007.0
2022-12-26T05:27:01.593Z,1007.0
2022-12-26T05:28:01.419Z,1007.1
2022-12-26T05:29:01.518Z,1007.1
2022-12-26T05:30:01.184Z,1007.1
2022-12-26T05:31:01.944Z,1007.0
2022-12-26T05:32:01.147Z,1007.0
2022-12-26T05:33:01.487Z,1007.0
2022-12-26T05:34:01.405Z,1007.0
2022-12-26T05:35:01.176Z,1007.1
2022-12-26T05:36:01.181Z,1007.0
2022-12-26T05:37:01.609Z,1007.1
2022-12-26T05:38:02.010Z,1007.0
2022-12-26T05:39:01.603Z,1007.1
2022-12-26T05:40:01.297Z,1007.1
2022-12-26T05:41:01.887Z,1007.1
2022-12-26T05:42:01.144Z,1007.1
2022-12-26T05:43:01.675Z,1007.1
2022-12-26T05:44:01.508Z,1007.1
2022-12-26T05:45:01.815Z,1007.1
2022-12-26T05:46:01.630Z,1007.1
2022-12-26T05:47:01.570Z,1007.1
2022-12-26T05:48:01.853Z,1007.1
2022-12-26T05:49:01.334Z,1007.1
2022-12-26T05:50:01.201Z,1007.1
2022-12-26T05:51:03.000Z,1007.0
2022-12-26T05:52:01.278Z,1007.1
2022-12-26T05:53:01.587Z,1007.1
2022-12-26T05:54:02.061Z,1007.1
2022-12-26T05:55:01.506Z,1007.1
2022-12-26T05:56:02.956Z,1007.1
2022-12-26T05:57:01.202Z,1007.2
2022-12-26T05:58:01.528Z,1007.2
2022-12-26T05:59:01.502Z,1007.2
2022-12-26T06:00:01.335Z,1007.2
2022-12-26T06:01:11.160Z,1007.2
2022-12-26T06:02:01.656Z,1007.3
2022-12-26T06:03:01.233Z,1007.2
2022-12-26T06:04:01.309Z,1007.3
2022-12-26T06:05:01.928Z,1007.3
2022-12-26T06:06:01.559Z,1007.2
2022-12-26T06:07:01.945Z,1007.3
2022-12-26T06:08:01.492Z,1007.3
2022-12-26T06:09:01.509Z,1007.3
2022-12-26T06:10:01.664Z,1007.3
2022-12-26T06:11:03.989Z,1007.4
2022-12-26T06:12:01.503Z,1007.3
2022-12-26T06:13:01.517Z,1007.3
2022-12-26T06:14:01.499Z,1007.3
2022-12-26T06:15:01.836Z,1007.3
2022-12-26T06:16:05.284Z,1007.3
2022-12-26T06:17:01.494Z,1007.2
2022-12-26T06:18:01.410Z,1007.2
2022-12-26T06:19:01.153Z,1007.3
2022-12-26T06:20:01.588Z,1007.3
2022-12-26T06:21:03.490Z,1007.4
2022-12-26T06:22:01.483Z,1007.4
2022-12-26T06:23:01.504Z,1007.4
2022-12-26T06:24:01.138Z,1007.4
2022-12-26T06:25:01.577Z,1007.4
2022-12-26T06:26:02.155Z,1007.4
2022-12-26T06:27:01.167Z,1007.4
2022-12-26T06:28:01.542Z,1007.4
2022-12-26T06:29:02.073Z,1007.5
2022-12-26T06:30:01.238Z,1007.4
2022-12-26T06:31:02.486Z,1007.5
2022-12-26T06:32:01.586Z,1007.5
2022-12-26T06:33:01.172Z,1007.6
2022-12-26T06:34:01.919Z,1007.5
2022-12-26T06:35:01.508Z,1007.6
2022-12-26T06:36:07.009Z,1007.6
2022-12-26T06:37:01.492Z,1007.6
2022-12-26T06:38:01.153Z,1007.6
2022-12-26T06:39:01.197Z,1007.7
2022-12-26T06:40:01.459Z,1007.7
2022-12-26T06:41:03.950Z,1007.7
2022-12-26T06:42:01.502Z,1007.6
2022-12-26T06:43:01.197Z,1007.6
2022-12-26T06:44:01.810Z,1007.7
2022-12-26T06:45:01.490Z,1007.7
2022-12-26T06:46:02.932Z,1007.7
2022-12-26T06:47:01.646Z,1007.7
2022-12-26T06:48:01.350Z,1007.8
2022-12-26T06:49:01.150Z,1007.8
2022-12-26T06:50:01.170Z,1007.9
2022-12-26T06:51:04.014Z,1008.0
2022-12-26T06:52:01.515Z,1008.0
2022-12-26T06:53:01.497Z,1008.0
2022-12-26T06:54:02.270Z,1008.1
2022-12-26T06:55:01.161Z,1008.2
2022-12-26T06:56:05.796Z,1008.2
2022-12-26T06:57:01.668Z,1008.2
2022-12-26T06:58:01.158Z,1008.2
2022-12-26T06:59:03.491Z,1008.3
2022-12-26T07:00:01.242Z,1008.2
2022-12-26T07:01:04.657Z,1008.2
2022-12-26T07:02:01.690Z,1008.2
2022-12-26T07:03:01.201Z,1008.2
2022-12-26T07:04:01.905Z,1008.2
2022-12-26T07:05:01.247Z,1008.2
2022-12-26T07:06:04.294Z,1008.2
2022-12-26T07:07:01.149Z,1008.3
2022-12-26T07:08:01.526Z,1008.2
2022-12-26T07:09:03.890Z,1008.2
2022-12-26T07:10:01.546Z,1008.2
2022-12-26T07:11:01.507Z,1008.3
2022-12-26T07:12:01.163Z,1008.3
2022-12-26T07:13:01.658Z,1008.3
2022-12-26T07:14:02.058Z,1008.3
2022-12-26T07:15:02.216Z,1008.3
2022-12-26T07:16:01.197Z,1008.3
2022-12-26T07:17:01.483Z,1008.3
2022-12-26T07:18:01.150Z,1008.3
2022-12-26T07:19:01.204Z,1008.3
2022-12-26T07:20:01.167Z,1008.3
2022-12-26T07:21:04.797Z,1008.3
2022-12-26T07:22:01.481Z,1008.3
2022-12-26T07:23:01.485Z,1008.3
2022-12-26T07:24:01.647Z,1008.3
2022-12-26T07:25:01.911Z,1008.2
2022-12-26T07:26:01.577Z,1008.3
2022-12-26T07:27:01.161Z,1008.2
2022-12-26T07:28:01.557Z,1008.3
2022-12-26T07:29:01.576Z,1008.2
2022-12-26T07:30:01.558Z,1008.2
2022-12-26T07:31:03.016Z,1008.2
2022-12-26T07:32:01.268Z,1008.3
2022-12-26T07:33:01.499Z,1008.3
2022-12-26T07:34:01.381Z,1008.2
2022-12-26T07:35:01.395Z,1008.3
2022-12-26T07:36:02.656Z,1008.3
2022-12-26T07:37:01.226Z,1008.4
2022-12-26T07:38:01.466Z,1008.5
2022-12-26T07:39:01.162Z,1008.5
2022-12-26T07:40:01.485Z,1008.6
2022-12-26T07:41:01.577Z,1008.6
2022-12-26T07:42:01.543Z,1008.5
2022-12-26T07:43:01.225Z,1008.5
2022-12-26T07:44:01.537Z,1008.5
2022-12-26T07:45:01.691Z,1008.5
2022-12-26T07:46:01.422Z,1008.5
2022-12-26T07:47:01.512Z,1008.5
2022-12-26T07:48:01.602Z,1008.5
2022-12-26T07:49:01.456Z,1008.5
2022-12-26T07:50:01.856Z,1008.5
2022-12-26T07:51:01.915Z,1008.5
2022-12-26T07:52:01.716Z,1008.5
2022-12-26T07:53:01.333Z,1008.5
2022-12-26T07:54:04.299Z,1008.5
2022-12-26T07:55:01.188Z,1008.5
2022-12-26T07:56:01.754Z,1008.5
2022-12-26T07:57:29.732Z,1008.5
2022-12-26T07:58:01.174Z,1008.6
2022-12-26T07:59:01.157Z,1008.7
2022-12-26T08:00:01.365Z,1008.8
2022-12-26T08:01:02.174Z,1008.8
2022-12-26T08:02:01.785Z,1008.7
2022-12-26T08:03:06.451Z,1008.7
2022-12-26T08:04:01.599Z,1008.7
2022-12-26T08:05:01.298Z,1008.8
2022-12-26T08:06:01.918Z,1008.8
2022-12-26T08:07:01.559Z,1008.9
2022-12-26T08:08:01.395Z,1008.9
2022-12-26T08:09:01.842Z,1008.9
2022-12-26T08:10:01.304Z,1008.9
2022-12-26T08:11:03.027Z,1009.0
2022-12-26T08:12:01.532Z,1009.0
2022-12-26T08:13:01.142Z,1009.0
2022-12-26T08:14:02.433Z,1009.0
2022-12-26T08:15:01.157Z,1009.0
2022-12-26T08:16:04.790Z,1009.0
2022-12-26T08:17:01.726Z,1009.0
2022-12-26T08:18:01.154Z,1009.1
2022-12-26T08:19:01.804Z,1009.1
2022-12-26T08:20:01.158Z,1009.1
2022-12-26T08:21:01.306Z,1009.1
2022-12-26T08:22:01.161Z,1009.1
2022-12-26T08:23:01.520Z,1009.1
2022-12-26T08:24:01.171Z,1009.2
2022-12-26T08:25:01.147Z,1009.2
2022-12-26T08:26:04.931Z,1009.1
2022-12-26T08:27:02.895Z,1009.1
2022-12-26T08:28:01.513Z,1009.2
2022-12-26T08:29:01.492Z,1009.2
2022-12-26T08:30:01.937Z,1009.2
2022-12-26T08:31:05.743Z,1009.2
2022-12-26T08:32:01.551Z,1009.2
2022-12-26T08:33:01.507Z,1009.2
2022-12-26T08:34:01.520Z,1009.1
2022-12-26T08:35:01.154Z,1009.1
2022-12-26T08:36:01.677Z,1009.1
2022-12-26T08:37:01.596Z,1009.1
2022-12-26T08:38:01.872Z,1009.1
2022-12-26T08:39:01.494Z,1009.1
2022-12-26T08:40:01.145Z,1009.1
2022-12-26T08:41:02.018Z,1009.1
2022-12-26T08:42:01.487Z,1009.2
2022-12-26T08:43:21.483Z,1009.2
2022-12-26T08:44:26.760Z,1009.2
2022-12-26T08:45:01.524Z,1009.2
2022-12-26T08:46:03.369Z,1009.2
2022-12-26T08:47:01.199Z,1009.2
2022-12-26T08:48:01.511Z,1009.2
2022-12-26T08:49:01.287Z,1009.3
2022-12-26T08:50:01.159Z,1009.3
2022-12-26T08:51:04.051Z,1009.3
2022-12-26T08:52:01.415Z,1009.3
2022-12-26T08:53:01.496Z,1009.3
2022-12-26T08:54:01.515Z,1009.4
2022-12-26T08:55:01.805Z,1009.4
2022-12-26T08:56:03.292Z,1009.3
2022-12-26T08:57:01.693Z,1009.4
2022-12-26T08:58:01.202Z,1009.4
2022-12-26T08:59:01.574Z,1009.4
2022-12-26T09:00:01.364Z,1009.4
2022-12-26T09:01:07.449Z,1009.4
2022-12-26T09:02:01.855Z,1009.4
2022-12-26T09:03:01.847Z,1009.4
2022-12-26T09:04:03.150Z,1009.4
2022-12-26T09:05:01.572Z,1009.4
2022-12-26T09:06:05.969Z,1009.5
2022-12-26T09:07:01.180Z,1009.5
2022-12-26T09:08:01.488Z,1009.5
2022-12-26T09:09:02.878Z,1009.6
2022-12-26T09:10:01.322Z,1009.6
2022-12-26T09:11:02.771Z,1009.6
2022-12-26T09:12:01.702Z,1009.6
2022-12-26T09:13:01.507Z,1009.7
2022-12-26T09:14:03.073Z,1009.7
2022-12-26T09:15:01.696Z,1009.7
2022-12-26T09:16:07.500Z,1009.7
2022-12-26T09:17:02.060Z,1009.7
2022-12-26T09:18:01.526Z,1009.7
2022-12-26T09:19:03.240Z,1009.7
2022-12-26T09:20:01.508Z,1009.7
2022-12-26T09:21:02.979Z,1009.7
2022-12-26T09:22:01.521Z,1009.8
2022-12-26T09:23:01.141Z,1009.8
2022-12-26T09:24:05.624Z,1009.8
2022-12-26T09:25:01.795Z,1009.8
2022-12-26T09:26:05.820Z,1009.9
2022-12-26T09:27:01.181Z,1009.9
2022-12-26T09:28:01.151Z,1009.9
2022-12-26T09:29:02.014Z,1009.9
2022-12-26T09:30:01.518Z,1009.9
2022-12-26T09:31:02.979Z,1009.9
2022-12-26T09:32:01.206Z,1009.8
2022-12-26T09:33:01.488Z,1009.8
2022-12-26T09:34:03.770Z,1009.8
2022-12-26T09:35:01.774Z,1009.8
2022-12-26T09:36:05.485Z,1009.8
2022-12-26T09:37:01.153Z,1009.7
2022-12-26T09:38:01.172Z,1009.8
2022-12-26T09:39:01.864Z,1009.7
2022-12-26T09:40:01.572Z,1009.7
2022-12-26T09:41:12.416Z,1009.7
2022-12-26T09:42:12.281Z,1009.8
2022-12-26T09:43:12.115Z,1009.8
2022-12-26T09:44:08.955Z,1009.9
2022-12-26T09:45:08.616Z,1009.9
2022-12-26T09:46:09.643Z,1009.9
2022-12-26T09:47:08.065Z,1009.9
2022-12-26T09:48:12.769Z,1010.0
2022-12-26T09:49:09.639Z,1009.9
2022-12-26T09:50:09.555Z,1010.0
2022-12-26T09:51:02.079Z,1010.0
2022-12-26T09:52:06.148Z,1010.0
2022-12-26T09:53:04.891Z,1010.0
2022-12-26T09:54:05.325Z,1010.1
2022-12-26T09:55:08.719Z,1010.1
2022-12-26T09:56:04.833Z,1010.2
2022-12-26T09:57:12.982Z,1010.2
2022-12-26T09:58:07.682Z,1010.2
2022-12-26T09:59:06.715Z,1010.3
2022-12-26T10:00:04.399Z,1010.3
2022-12-26T10:01:09.456Z,1010.3
2022-12-26T10:02:01.732Z,1010.3
2022-12-26T10:03:01.631Z,1010.3
2022-12-26T10:04:07.526Z,1010.3
2022-12-26T10:05:01.662Z,1010.3
2022-12-26T10:06:09.443Z,1010.3
2022-12-26T10:07:16.569Z,1010.3
2022-12-26T10:08:18.746Z,1010.3
2022-12-26T10:09:14.652Z,1010.4
2022-12-26T10:10:09.324Z,1010.4
2022-12-26T10:11:03.588Z,1010.4
2022-12-26T10:12:17.002Z,1010.4
2022-12-26T10:13:11.294Z,1010.4
2022-12-26T10:14:08.854Z,1010.4
2022-12-26T10:15:12.065Z,1010.4
2022-12-26T10:16:08.558Z,1010.4
2022-12-26T10:17:14.377Z,1010.5
2022-12-26T10:18:14.032Z,1010.5
2022-12-26T10:19:10.524Z,1010.5
2022-12-26T10:20:16.932Z,1010.5
2022-12-26T10:21:12.700Z,1010.6
2022-12-26T10:22:13.623Z,1010.6
2022-12-26T10:23:19.227Z,1010.6
2022-12-26T10:24:07.891Z,1010.7
2022-12-26T10:25:02.894Z,1010.6
2022-12-26T10:26:10.311Z,1010.7
2022-12-26T10:27:06.183Z,1010.6
2022-12-26T10:28:03.435Z,1010.6
2022-12-26T10:29:10.957Z,1010.7
2022-12-26T10:30:05.504Z,1010.7
2022-12-26T10:31:05.996Z,1010.6
2022-12-26T10:32:06.226Z,1010.7
2022-12-26T10:33:09.489Z,1010.7
2022-12-26T10:34:10.397Z,1010.7
2022-12-26T10:35:17.816Z,1010.7
2022-12-26T10:36:02.136Z,1010.8
2022-12-26T10:37:09.368Z,1010.8
2022-12-26T10:38:10.649Z,1010.8
2022-12-26T10:39:05.121Z,1010.8
2022-12-26T10:40:15.848Z,1010.9
2022-12-26T10:41:07.947Z,1010.9
2022-12-26T10:42:10.060Z,1011.0
2022-12-26T10:43:19.477Z,1011.0
2022-12-26T10:44:01.805Z,1011.0
2022-12-26T10:45:11.423Z,1011.1
2022-12-26T10:46:18.503Z,1011.1
2022-12-26T10:47:14.059Z,1011.1
2022-12-26T10:48:01.655Z,1011.2
2022-12-26T10:49:01.746Z,1011.2
2022-12-26T10:50:03.447Z,1011.2
2022-12-26T10:51:02.437Z,1011.2
2022-12-26T10:52:03.127Z,1011.2
2022-12-26T10:53:06.820Z,1011.3
2022-12-26T10:54:01.526Z,1011.3
2022-12-26T10:55:29.540Z,1011.3
2022-12-26T10:56:02.110Z,1011.3
2022-12-26T10:57:02.182Z,1011.3
2022-12-26T10:58:06.342Z,1011.4
2022-12-26T10:59:04.025Z,1011.4
2022-12-26T11:00:03.956Z,1011.4
2022-12-26T11:01:20.589Z,1011.4
2022-12-26T11:02:13.118Z,1011.3
2022-12-26T11:03:04.646Z,1011.3
2022-12-26T11:04:03.560Z,1011.4
2022-12-26T11:05:21.842Z,1011.3
2022-12-26T11:06:09.160Z,1011.3
2022-12-26T11:07:09.269Z,1011.3
2022-12-26T11:08:08.528Z,1011.3
2022-12-26T11:09:01.769Z,1011.3
2022-12-26T11:10:02.959Z,1011.3
2022-12-26T11:11:06.304Z,1011.3
2022-12-26T11:12:02.662Z,1011.3
2022-12-26T11:13:05.868Z,1011.4
2022-12-26T11:14:03.140Z,1011.4
2022-12-26T11:15:03.852Z,1011.4
2022-12-26T11:16:02.184Z,1011.4
2022-12-26T11:17:05.368Z,1011.5
2022-12-26T11:18:16.757Z,1011.4
2022-12-26T11:19:02.053Z,1011.5
2022-12-26T11:20:20.429Z,1011.5
2022-12-26T11:21:13.052Z,1011.5
2022-12-26T11:22:20.151Z,1011.5
2022-12-26T11:23:17.776Z,1011.5
2022-12-26T11:24:15.646Z,1011.6
2022-12-26T11:25:14.443Z,1011.7
2022-12-26T11:26:01.429Z,1011.7
2022-12-26T11:27:17.169Z,1011.7
2022-12-26T11:28:19.670Z,1011.7
2022-12-26T11:29:06.936Z,1011.8
2022-12-26T11:30:20.540Z,1011.8
2022-12-26T11:31:04.451Z,1011.8
2022-12-26T11:32:04.162Z,1011.9
2022-12-26T11:33:16.514Z,1011.9
2022-12-26T11:34:07.970Z,1011.9
2022-12-26T11:35:02.926Z,1011.9
2022-12-26T11:36:08.657Z,1011.9
2022-12-26T11:37:04.958Z,1011.9
2022-12-26T11:38:03.075Z,1011.9
2022-12-26T11:39:04.391Z,1011.9
2022-12-26T11:40:01.848Z,1012.0
2022-12-26T11:41:04.745Z,1012.0
2022-12-26T11:42:09.458Z,1012.0
2022-12-26T11:43:04.763Z,1012.0
2022-12-26T11:44:12.328Z,1012.1
2022-12-26T11:45:11.034Z,1012.1
2022-12-26T11:46:01.717Z,1012.1
2022-12-26T11:47:09.808Z,1012.2
2022-12-26T11:48:01.934Z,1012.2
2022-12-26T11:49:02.991Z,1012.1
2022-12-26T11:50:04.513Z,1012.1
2022-12-26T11:51:02.965Z,1012.1
2022-12-26T11:52:12.529Z,1012.1
2022-12-26T11:53:06.030Z,1012.1
2022-12-26T11:54:17.723Z,1012.1
2022-12-26T11:55:11.325Z,1012.1
2022-12-26T11:56:03.724Z,1012.2
2022-12-26T11:57:10.280Z,1012.2
2022-12-26T11:58:14.158Z,1012.2
2022-12-26T11:59:15.407Z,1012.2
2022-12-26T12:00:15.713Z,1012.2
2022-12-26T12:01:06.819Z,1012.2
2022-12-26T12:02:15.479Z,1012.3
2022-12-26T12:03:03.291Z,1012.3
2022-12-26T12:04:01.624Z,1012.3
2022-12-26T12:05:12.649Z,1012.3
2022-12-26T12:06:12.742Z,1012.4
2022-12-26T12:07:11.701Z,1012.4
2022-12-26T12:08:19.989Z,1012.4
2022-12-26T12:09:12.985Z,1012.4
2022-12-26T12:10:15.328Z,1012.4
2022-12-26T12:11:12.598Z,1012.5
2022-12-26T12:12:10.727Z,1012.6
2022-12-26T12:13:10.317Z,1012.6
2022-12-26T12:14:17.382Z,1012.6
2022-12-26T12:15:12.523Z,1012.7
2022-12-26T12:16:13.055Z,1012.7
2022-12-26T12:17:12.968Z,1012.8
2022-12-26T12:18:08.108Z,1012.8
2022-12-26T12:19:13.584Z,1012.9
2022-12-26T12:20:17.692Z,1012.8
2022-12-26T12:21:14.932Z,1012.8
2022-12-26T12:22:15.646Z,1012.9
2022-12-26T12:23:20.556Z,1012.9
2022-12-26T12:24:20.545Z,1012.9
2022-12-26T12:25:20.541Z,1012.9
2022-12-26T12:26:08.137Z,1012.9
2022-12-26T12:27:09.257Z,1013.0
2022-12-26T12:28:13.787Z,1012.9